Rio Verde, Brazil
Current Conditions -  °F | °C
As of 5:00 AM on Friday 19 Dec 2014 (Local Time) from SBGO Reporting Station
Light Rain Light Rain  
Wind Chill: 68°   Ceiling: Unl
Heat Index: 68°   Visibility: 6mi
Dew Point: 64°   Wind: 5mph
Humidity: 88%   Direction: 120°ESE
Pressure: 29.88"   Gusts: NA
Location:  17.82°S, 50.93°W
Report Text: SBGO 190700Z 12004KT 9999 -RA FEW040 SCT100 20/18 Q1012
Loading
Personal Weather Stations






























Interactive Weather Map New forecast layout! Learn more

10-Day Weather Forecast

Advertisements
Track Severe Weather on mobile